Time;durP1;ratioP1;P1;durP2;ratioP2;P2;SDS_P1;SDS_P2;PMS_P1;PMS_P2;Temp;Humidity;BMP_temperature;BMP_pressure;BME280_temperature;BME280_humidity;BME280_pressure;Samples;Min_cycle;Max_cycle;Signal;HPM_P1;HPM_P2
2023/02/17 00:01:56;;;;;;;21.73;12.90;;;5.70;71.50;;;;;;5023317;28;20426;-59
2023/02/17 00:04:22;;;;;;;19.10;12.00;;;5.60;72.60;;;;;;5022043;28;20273;-59
2023/02/17 00:06:47;;;;;;;22.70;12.57;;;5.40;73.10;;;;;;5023187;28;20196;-59
2023/02/17 00:09:13;;;;;;;20.80;11.73;;;5.40;74.10;;;;;;5025033;28;20184;-58
2023/02/17 00:11:39;;;;;;;21.00;11.80;;;5.30;75.40;;;;;;5026341;28;20203;-59
2023/02/17 00:14:05;;;;;;;18.97;12.50;;;5.20;76.80;;;;;;5021720;28;21148;-59
2023/02/17 00:16:31;;;;;;;22.03;12.57;;;5.00;77.80;;;;;;5010839;28;20392;-58
2023/02/17 00:18:59;;;;;;;16.57;10.70;;;5.00;78.70;;;;;;5025447;28;20664;-59
2023/02/17 00:21:29;;;;;;;19.70;11.33;;;4.90;79.80;;;;;;5028314;28;20266;-59
2023/02/17 00:23:57;;;;;;;21.73;11.80;;;4.80;81.10;;;;;;5031024;28;20449;-59
2023/02/17 00:26:22;;;;;;;19.83;11.40;;;4.70;82.40;;;;;;5011902;28;20530;-59
2023/02/17 00:28:49;;;;;;;19.60;11.63;;;4.70;84.80;;;;;;5026458;28;20891;-58
2023/02/17 00:31:18;;;;;;;20.00;11.70;;;4.60;86.10;;;;;;5023077;28;20257;-58
2023/02/17 00:33:43;;;;;;;18.80;11.50;;;4.60;88.00;;;;;;5019586;28;20484;-59
2023/02/17 00:36:16;;;;;;;19.27;12.10;;;4.60;88.40;;;;;;5026091;28;21012;-59
2023/02/17 00:38:42;;;;;;;25.87;12.83;;;4.60;89.20;;;;;;5012172;28;20263;-59
2023/02/17 00:41:08;;;;;;;22.53;12.57;;;4.60;89.80;;;;;;5025799;28;20434;-59
2023/02/17 00:43:34;;;;;;;20.97;11.73;;;4.60;90.00;;;;;;5026380;28;20426;-59
2023/02/17 00:46:02;;;;;;;18.57;11.03;;;4.60;90.30;;;;;;5031555;28;20757;-58
2023/02/17 00:48:28;;;;;;;24.50;13.13;;;4.60;90.40;;;;;;5028219;28;20176;-59
2023/02/17 00:50:54;;;;;;;18.70;11.70;;;4.60;90.30;;;;;;5037144;28;20965;-59
2023/02/17 00:53:19;;;;;;;21.17;11.67;;;4.70;90.60;;;;;;5032910;28;20465;-58
2023/02/17 00:55:45;;;;;;;18.47;10.53;;;4.70;90.60;;;;;;5013345;28;20615;-58
2023/02/17 00:58:10;;;;;;;21.93;12.60;;;4.70;90.30;;;;;;5031897;28;20172;-58
2023/02/17 01:00:36;;;;;;;19.10;11.67;;;4.70;90.20;;;;;;5036129;28;20680;-59
2023/02/17 01:03:02;;;;;;;21.57;12.00;;;4.70;89.40;;;;;;5035391;28;20699;-59
2023/02/17 01:05:28;;;;;;;18.70;11.17;;;4.60;88.50;;;;;;5035266;28;20680;-58
2023/02/17 01:07:54;;;;;;;20.37;11.03;;;4.60;88.10;;;;;;5027610;28;21240;-59
2023/02/17 01:10:20;;;;;;;15.77;10.30;;;4.60;88.30;;;;;;5025966;28;20206;-60
2023/02/17 01:12:46;;;;;;;19.30;10.77;;;4.50;89.00;;;;;;5028321;28;20427;-59
2023/02/17 01:15:12;;;;;;;21.57;11.07;;;4.50;89.40;;;;;;5025057;28;20321;-59
2023/02/17 01:17:38;;;;;;;19.00;11.77;;;4.40;89.30;;;;;;5027533;28;20798;-58
2023/02/17 01:20:04;;;;;;;21.40;12.27;;;4.40;89.20;;;;;;5028891;28;20438;-58
2023/02/17 01:22:30;;;;;;;20.20;11.53;;;4.30;90.00;;;;;;5026904;28;20175;-59
2023/02/17 01:24:55;;;;;;;18.10;11.10;;;4.30;90.40;;;;;;5007599;28;20787;-59
2023/02/17 01:27:21;;;;;;;17.33;7.93;;;4.20;90.70;;;;;;5034348;28;20557;-58
2023/02/17 01:29:47;;;;;;;12.90;7.40;;;4.30;90.80;;;;;;5027052;28;20175;-58
2023/02/17 01:32:12;;;;;;;14.23;7.40;;;4.40;90.10;;;;;;5027524;28;20176;-58
2023/02/17 01:34:38;;;;;;;9.50;6.20;;;4.60;86.70;;;;;;5024980;28;20182;-59
2023/02/17 01:37:03;;;;;;;13.53;7.20;;;4.70;83.60;;;;;;5030821;28;20720;-58
2023/02/17 01:39:29;;;;;;;16.77;7.10;;;4.90;80.60;;;;;;5028366;28;20176;-58
2023/02/17 01:41:55;;;;;;;11.53;6.67;;;5.00;78.20;;;;;;5031225;28;20529;-59
2023/02/17 01:44:23;;;;;;;11.90;6.80;;;5.10;76.20;;;;;;5026535;28;20180;-59
2023/02/17 01:46:53;;;;;;;11.33;6.20;;;5.20;74.70;;;;;;5026818;28;20951;-59
2023/02/17 01:49:38;;;;;;;9.47;6.37;;;5.20;73.20;;;;;;5011714;28;20410;-59
2023/02/17 01:52:08;;;;;;;11.00;7.00;;;5.30;72.50;;;;;;5022629;28;20458;-58
2023/02/17 01:54:43;;;;;;;11.13;6.03;;;5.30;72.10;;;;;;5026715;28;20411;-59
2023/02/17 01:57:11;;;;;;;12.53;6.07;;;5.20;71.80;;;;;;5039884;28;20806;-58
2023/02/17 01:59:38;;;;;;;11.50;5.40;;;5.20;72.20;;;;;;5030256;28;20504;-58
2023/02/17 02:02:05;;;;;;;9.60;6.00;;;5.20;72.10;;;;;;5032404;28;20498;-59
2023/02/17 02:04:35;;;;;;;12.30;6.20;;;5.30;71.50;;;;;;5024157;28;20433;-58
2023/02/17 02:07:02;;;;;;;9.93;5.70;;;5.40;71.10;;;;;;5029090;28;20505;-58
2023/02/17 02:09:36;;;;;;;16.50;6.33;;;5.40;70.80;;;;;;5021009;28;20485;-59
2023/02/17 02:12:02;;;;;;;12.20;5.97;;;5.40;70.80;;;;;;5028441;28;20429;-58
2023/02/17 02:14:28;;;;;;;9.33;6.10;;;5.40;70.70;;;;;;5037159;28;20429;-58
2023/02/17 02:17:10;;;;;;;10.37;6.20;;;5.40;70.70;;;;;;5012827;28;20456;-59
2023/02/17 02:20:06;;;;;;;12.63;6.30;;;5.40;71.10;;;;;;5033728;28;20446;-58
2023/02/17 02:22:55;;;;;;;9.90;5.80;;;5.40;71.40;;;;;;5029135;28;20426;-59
2023/02/17 02:25:47;;;;;;;13.83;6.80;;;5.40;72.40;;;;;;5023423;28;20454;-59
2023/02/17 02:28:19;;;;;;;11.87;5.83;;;5.40;72.70;;;;;;5025965;28;20958;-58
2023/02/17 02:31:06;;;;;;;11.30;5.77;;;5.40;73.00;;;;;;5029776;28;20462;-59
2023/02/17 02:33:46;;;;;;;8.87;5.70;;;5.50;73.10;;;;;;5030638;28;20943;-59
2023/02/17 02:36:26;;;;;;;13.90;6.50;;;5.50;73.10;;;;;;5025290;28;20449;-59
2023/02/17 02:39:03;;;;;;;8.90;6.73;;;5.60;73.70;;;;;;5028078;28;20433;-59
2023/02/17 02:41:48;;;;;;;11.57;7.17;;;5.60;73.50;;;;;;5023378;28;20470;-58
2023/02/17 02:44:17;;;;;;;11.87;6.27;;;5.60;73.70;;;;;;5027489;28;20514;-59
2023/02/17 02:46:42;;;;;;;14.10;6.17;;;5.60;74.30;;;;;;5029947;28;20632;-59
2023/02/17 02:49:08;;;;;;;10.20;6.03;;;5.60;74.20;;;;;;5028258;28;21010;-59
2023/02/17 02:51:43;;;;;;;11.23;6.60;;;5.60;74.60;;;;;;5028043;28;20214;-59
2023/02/17 02:54:18;;;;;;;9.27;5.80;;;5.60;74.50;;;;;;5027017;28;20455;-58
2023/02/17 02:56:49;;;;;;;10.00;6.33;;;5.70;75.40;;;;;;5025313;28;20485;-59
2023/02/17 02:59:40;;;;;;;9.53;6.50;;;5.80;75.40;;;;;;5024588;28;20422;-58
2023/02/17 03:02:41;;;;;;;10.77;5.60;;;5.80;75.30;;;;;;5027289;28;20433;-59
2023/02/17 03:05:12;;;;;;;6.20;4.60;;;5.90;74.90;;;;;;5028232;28;20438;-59
2023/02/17 03:08:13;;;;;;;13.30;5.47;;;6.00;74.30;;;;;;5026803;28;20426;-58
2023/02/17 03:10:47;;;;;;;9.80;4.73;;;6.20;74.00;;;;;;5023164;28;22417;-58
2023/02/17 03:13:14;;;;;;;10.23;5.07;;;6.30;73.30;;;;;;5028024;28;20953;-59
2023/02/17 03:15:40;;;;;;;9.57;4.67;;;6.30;73.00;;;;;;5029360;28;20514;-59
2023/02/17 03:18:05;;;;;;;9.80;4.77;;;6.40;72.60;;;;;;5036823;28;20430;-59
2023/02/17 03:20:38;;;;;;;13.63;5.37;;;6.50;72.30;;;;;;5037425;28;20433;-58
2023/02/17 03:23:06;;;;;;;12.77;6.70;;;6.60;71.90;;;;;;5042412;28;20719;-59
2023/02/17 03:25:31;;;;;;;12.63;5.10;;;6.60;72.00;;;;;;5025389;28;21069;-59
2023/02/17 03:27:57;;;;;;;10.23;5.50;;;6.60;71.90;;;;;;5024450;28;20434;-59
2023/02/17 03:30:22;;;;;;;15.33;5.80;;;6.60;71.90;;;;;;5024667;28;20191;-59
2023/02/17 03:32:48;;;;;;;11.70;5.10;;;6.70;71.90;;;;;;5028531;28;20707;-59
2023/02/17 03:35:14;;;;;;;10.40;4.67;;;6.70;71.90;;;;;;5026682;28;20172;-59
2023/02/17 03:37:40;;;;;;;9.70;5.30;;;6.70;72.00;;;;;;5026937;28;20187;-58
2023/02/17 03:40:07;;;;;;;9.70;4.73;;;6.70;72.10;;;;;;5031911;28;20434;-59
2023/02/17 03:42:33;;;;;;;8.47;5.07;;;6.80;71.70;;;;;;5032294;28;20180;-58
2023/02/17 03:44:59;;;;;;;7.90;4.80;;;6.90;71.20;;;;;;5028609;28;20433;-59
2023/02/17 03:47:24;;;;;;;9.80;4.60;;;6.90;70.90;;;;;;5013458;28;20798;-59
2023/02/17 03:49:50;;;;;;;12.40;5.27;;;7.00;70.70;;;;;;5017447;28;20188;-59
2023/02/17 03:52:17;;;;;;;11.63;5.47;;;7.00;70.40;;;;;;5011763;28;20176;-58
2023/02/17 03:54:42;;;;;;;11.50;5.10;;;7.10;70.10;;;;;;5031109;28;20490;-59
2023/02/17 03:57:08;;;;;;;12.57;5.17;;;7.10;69.70;;;;;;5027895;28;20843;-59
2023/02/17 03:59:34;;;;;;;9.60;5.27;;;7.20;69.20;;;;;;5027956;28;20195;-58
2023/02/17 04:01:59;;;;;;;7.33;4.87;;;7.20;68.70;;;;;;5035261;28;20191;-59
2023/02/17 04:04:25;;;;;;;10.17;5.40;;;7.30;68.40;;;;;;5029924;28;20184;-60
2023/02/17 04:06:50;;;;;;;8.17;5.17;;;7.30;68.20;;;;;;5023043;28;20253;-59
2023/02/17 04:09:16;;;;;;;15.30;5.77;;;7.30;68.20;;;;;;5032719;28;20258;-59
2023/02/17 04:11:42;;;;;;;7.13;4.87;;;7.30;68.10;;;;;;5030968;28;20208;-59
2023/02/17 04:14:08;;;;;;;6.50;5.00;;;7.30;67.90;;;;;;5029069;28;20176;-59
2023/02/17 04:16:33;;;;;;;14.60;6.20;;;7.30;67.70;;;;;;5026893;28;20900;-60
2023/02/17 04:18:59;;;;;;;15.13;5.33;;;7.30;67.50;;;;;;5007543;28;20248;-59
2023/02/17 04:21:25;;;;;;;12.20;5.17;;;7.40;67.50;;;;;;5023956;28;20191;-59
2023/02/17 04:23:50;;;;;;;11.83;5.40;;;7.40;67.40;;;;;;5021733;28;20783;-59
2023/02/17 04:26:16;;;;;;;14.33;5.30;;;7.40;67.30;;;;;;5026275;28;20191;-59
2023/02/17 04:28:42;;;;;;;9.53;5.27;;;7.40;67.00;;;;;;5025784;28;20180;-59
2023/02/17 04:31:08;;;;;;;9.40;4.90;;;7.40;66.70;;;;;;5029018;28;20873;-59
2023/02/17 04:33:34;;;;;;;9.57;5.07;;;7.50;66.70;;;;;;5028923;28;20418;-58
2023/02/17 04:36:00;;;;;;;10.43;5.17;;;7.50;66.50;;;;;;5013579;28;20823;-58
2023/02/17 04:38:30;;;;;;;14.43;5.63;;;7.50;66.50;;;;;;5031304;28;20445;-59
2023/02/17 04:40:57;;;;;;;11.50;6.20;;;7.50;66.30;;;;;;5030520;28;20707;-58
2023/02/17 04:43:24;;;;;;;11.03;5.13;;;7.50;66.20;;;;;;5030383;28;20886;-59
2023/02/17 04:45:50;;;;;;;7.00;4.83;;;7.50;66.20;;;;;;5031667;28;20456;-58
2023/02/17 04:48:17;;;;;;;11.20;5.93;;;7.50;66.10;;;;;;5029833;28;20806;-59
2023/02/17 04:50:42;;;;;;;11.37;6.13;;;7.50;66.20;;;;;;5027827;28;20208;-59
2023/02/17 04:53:08;;;;;;;12.00;5.30;;;7.60;66.30;;;;;;5032097;28;20968;-59
2023/02/17 04:55:34;;;;;;;9.87;6.10;;;7.60;66.30;;;;;;5022733;28;20217;-59
2023/02/17 04:57:59;;;;;;;9.90;5.17;;;7.60;66.30;;;;;;5022578;28;20180;-58
2023/02/17 05:00:25;;;;;;;12.80;5.33;;;7.60;66.30;;;;;;5026758;28;20556;-59
2023/02/17 05:02:51;;;;;;;15.73;5.53;;;7.60;66.40;;;;;;5039025;28;20176;-59
2023/02/17 05:05:17;;;;;;;8.17;5.33;;;7.60;66.50;;;;;;5032182;28;20186;-59
2023/02/17 05:07:44;;;;;;;7.60;4.80;;;7.50;66.50;;;;;;5023080;28;20581;-59
2023/02/17 05:10:11;;;;;;;9.90;4.80;;;7.50;66.60;;;;;;5023423;28;20993;-59
2023/02/17 05:12:38;;;;;;;14.07;6.10;;;7.50;66.60;;;;;;5014605;28;20426;-59
2023/02/17 05:15:05;;;;;;;12.20;5.60;;;7.60;66.70;;;;;;5021109;28;20572;-59
2023/02/17 05:17:31;;;;;;;7.63;5.20;;;7.60;66.70;;;;;;5027018;28;20525;-59
2023/02/17 05:19:57;;;;;;;9.57;4.90;;;7.60;66.60;;;;;;5029688;28;20995;-59
2023/02/17 05:22:23;;;;;;;10.47;4.23;;;7.60;66.60;;;;;;5027196;28;20441;-59
2023/02/17 05:24:48;;;;;;;8.80;4.90;;;7.60;66.80;;;;;;5027764;28;20176;-59
2023/02/17 05:27:14;;;;;;;11.27;4.73;;;7.60;66.10;;;;;;5024071;28;20198;-59
2023/02/17 05:29:39;;;;;;;8.43;5.20;;;7.60;66.00;;;;;;5029175;28;20183;-59
2023/02/17 05:32:05;;;;;;;10.50;5.60;;;7.60;65.90;;;;;;5031749;28;20163;-58
2023/02/17 05:34:31;;;;;;;9.03;4.50;;;7.60;66.00;;;;;;5032478;28;20180;-60
2023/02/17 05:36:57;;;;;;;11.90;5.63;;;7.60;66.00;;;;;;5029113;28;20484;-58
2023/02/17 05:39:23;;;;;;;13.00;5.70;;;7.60;66.20;;;;;;5026422;28;20788;-59
2023/02/17 05:41:49;;;;;;;9.70;4.50;;;7.60;66.30;;;;;;5030565;28;20175;-60
2023/02/17 05:44:14;;;;;;;6.97;5.20;;;7.70;66.40;;;;;;5032041;28;20254;-59
2023/02/17 05:46:40;;;;;;;12.37;4.80;;;7.70;66.50;;;;;;5014853;28;20203;-59
2023/02/17 05:49:06;;;;;;;12.73;5.53;;;7.70;66.50;;;;;;5028205;28;20179;-59
2023/02/17 05:51:31;;;;;;;12.37;4.97;;;7.70;66.60;;;;;;5026067;28;20200;-59
2023/02/17 05:53:57;;;;;;;10.63;5.20;;;7.70;66.80;;;;;;5034102;28;20192;-59
2023/02/17 05:56:23;;;;;;;8.30;4.90;;;7.60;66.80;;;;;;5035059;28;20254;-59
2023/02/17 05:58:48;;;;;;;10.57;5.17;;;7.70;67.10;;;;;;5040314;28;20192;-59
2023/02/17 06:01:14;;;;;;;11.10;5.03;;;7.70;67.10;;;;;;5034672;28;20640;-59
2023/02/17 06:03:40;;;;;;;8.00;4.53;;;7.70;67.20;;;;;;5038844;28;20563;-59
2023/02/17 06:06:06;;;;;;;12.83;5.03;;;7.70;67.80;;;;;;5008119;28;20200;-60
2023/02/17 06:08:32;;;;;;;8.13;5.50;;;7.70;67.30;;;;;;5029192;28;20176;-59
2023/02/17 06:10:58;;;;;;;15.70;4.80;;;7.70;67.40;;;;;;5026784;28;20516;-60
2023/02/17 06:13:23;;;;;;;12.87;5.40;;;7.70;67.50;;;;;;5018492;28;20438;-59
2023/02/17 06:15:49;;;;;;;8.30;4.90;;;7.70;67.60;;;;;;5030002;28;20756;-59
2023/02/17 06:18:15;;;;;;;10.43;5.30;;;7.70;67.70;;;;;;5019547;28;20230;-59
2023/02/17 06:20:40;;;;;;;6.67;4.37;;;7.70;67.80;;;;;;5010699;28;21186;-59
2023/02/17 06:23:06;;;;;;;6.33;4.80;;;7.70;67.80;;;;;;5024918;28;20657;-58
2023/02/17 06:25:31;;;;;;;14.53;5.87;;;7.70;67.80;;;;;;5030422;28;20208;-58
2023/02/17 06:27:57;;;;;;;5.40;4.17;;;7.70;67.90;;;;;;5028310;28;20218;-58
2023/02/17 06:30:23;;;;;;;11.47;5.30;;;7.70;67.90;;;;;;5028884;28;20261;-58
2023/02/17 06:32:49;;;;;;;9.60;5.00;;;7.80;68.10;;;;;;5012848;28;20234;-58
2023/02/17 06:35:15;;;;;;;14.03;4.93;;;7.80;68.20;;;;;;5037608;28;20250;-58
2023/02/17 06:37:41;;;;;;;10.90;4.07;;;7.80;68.30;;;;;;5007154;28;20522;-58
2023/02/17 06:40:07;;;;;;;8.50;5.07;;;7.80;68.40;;;;;;5027532;28;20279;-59
2023/02/17 06:42:33;;;;;;;8.07;4.70;;;7.80;68.50;;;;;;5028049;28;20188;-58
2023/02/17 06:44:59;;;;;;;6.77;4.40;;;7.80;68.80;;;;;;5039841;28;20427;-59
2023/02/17 06:47:25;;;;;;;9.53;4.67;;;7.90;69.00;;;;;;5037176;28;20215;-60
2023/02/17 06:49:51;;;;;;;10.23;5.00;;;7.90;69.10;;;;;;5024009;28;20427;-59
2023/02/17 06:52:16;;;;;;;6.57;4.57;;;7.90;69.30;;;;;;5028885;28;20186;-59
2023/02/17 06:54:42;;;;;;;10.60;4.67;;;7.90;69.60;;;;;;5023802;28;20258;-59
2023/02/17 06:57:07;;;;;;;8.20;4.73;;;7.90;69.70;;;;;;5028343;28;20203;-59
2023/02/17 06:59:33;;;;;;;8.37;4.37;;;8.00;69.90;;;;;;5030610;28;20176;-59
2023/02/17 07:01:59;;;;;;;9.10;4.47;;;8.00;70.10;;;;;;5036130;28;20171;-59
2023/02/17 07:04:24;;;;;;;6.00;3.53;;;8.00;70.30;;;;;;5029163;28;20191;-59
2023/02/17 07:06:50;;;;;;;6.07;3.57;;;8.10;70.40;;;;;;5035289;28;20200;-60
2023/02/17 07:09:15;;;;;;;12.13;4.00;;;8.20;70.20;;;;;;5029220;28;20736;-59
2023/02/17 07:11:43;;;;;;;10.70;4.63;;;8.20;70.00;;;;;;5030774;28;20273;-58
2023/02/17 07:14:09;;;;;;;8.97;3.93;;;8.20;69.90;;;;;;5030200;28;20168;-59
2023/02/17 07:16:34;;;;;;;6.00;4.10;;;8.30;70.10;;;;;;5031006;28;20978;-59
2023/02/17 07:19:00;;;;;;;8.10;3.90;;;8.30;70.20;;;;;;5030530;28;20246;-59
2023/02/17 07:21:25;;;;;;;6.87;3.60;;;8.30;70.20;;;;;;5032578;28;20188;-60
2023/02/17 07:23:51;;;;;;;11.53;3.33;;;8.30;70.20;;;;;;5031400;28;20184;-59
2023/02/17 07:26:16;;;;;;;6.53;3.67;;;8.40;70.20;;;;;;5024633;28;20218;-56
2023/02/17 07:28:43;;;;;;;5.00;3.13;;;8.40;70.10;;;;;;5018086;28;20184;-57
2023/02/17 07:31:14;;;;;;;8.13;4.00;;;8.50;70.50;;;;;;5022461;28;20705;-58
2023/02/17 07:33:41;;;;;;;13.50;4.20;;;8.60;70.30;;;;;;5029614;28;20809;-58
2023/02/17 07:36:08;;;;;;;6.10;3.33;;;8.70;69.80;;;;;;5027833;28;20826;-59
2023/02/17 07:38:34;;;;;;;7.63;3.67;;;8.70;69.00;;;;;;5028480;28;20521;-59
2023/02/17 07:41:08;;;;;;;6.63;3.27;;;8.80;68.40;;;;;;5029840;28;20856;-59
2023/02/17 07:43:34;;;;;;;8.43;4.00;;;8.80;68.00;;;;;;5037841;28;20437;-59
2023/02/17 07:46:00;;;;;;;8.70;3.80;;;8.90;68.00;;;;;;5034488;28;20450;-60
2023/02/17 07:48:26;;;;;;;9.43;4.13;;;8.90;67.90;;;;;;4998019;28;20180;-59
2023/02/17 07:50:51;;;;;;;11.67;4.87;;;8.90;68.00;;;;;;5010160;28;20804;-59
2023/02/17 07:53:17;;;;;;;9.27;4.30;;;8.90;68.00;;;;;;5033013;28;20228;-59
2023/02/17 07:55:42;;;;;;;5.20;4.00;;;8.90;68.10;;;;;;5039484;28;20192;-60
2023/02/17 07:58:08;;;;;;;6.93;3.80;;;9.00;68.20;;;;;;5031853;28;20175;-60
2023/02/17 08:00:33;;;;;;;9.43;3.97;;;9.00;68.10;;;;;;5017067;28;20254;-59
2023/02/17 08:02:59;;;;;;;9.97;3.90;;;9.00;68.00;;;;;;5017964;28;20290;-59
2023/02/17 08:05:25;;;;;;;6.57;3.97;;;9.00;68.00;;;;;;5024696;28;20558;-59
2023/02/17 08:13:17;;;;;;;8.43;4.10;;;9.00;68.20;;;;;;5027248;28;20581;-59
2023/02/17 08:13:22;;;;;;;9.53;4.57;;;9.00;68.40;;;;;;5029197;28;20433;-59
2023/02/17 08:15:48;;;;;;;9.70;4.37;;;9.00;68.60;;;;;;5026443;28;20553;-59
2023/02/17 08:18:13;;;;;;;29.07;4.90;;;9.10;68.70;;;;;;5020735;28;20510;-59
2023/02/17 08:20:39;;;;;;;10.23;3.87;;;9.10;68.70;;;;;;5027549;28;20180;-58
2023/02/17 08:23:04;;;;;;;6.63;3.93;;;9.20;68.70;;;;;;5023872;28;20290;-59
2023/02/17 08:25:35;;;;;;;12.30;4.43;;;9.20;68.40;;;;;;5022206;28;20698;-58
2023/02/17 08:28:01;;;;;;;10.43;4.00;;;9.30;68.50;;;;;;5012768;28;20182;-59
2023/02/17 08:30:27;;;;;;;6.70;4.57;;;9.30;68.60;;;;;;5009065;28;20484;-59
2023/02/17 08:32:52;;;;;;;10.70;5.07;;;9.30;68.70;;;;;;5027164;28;20431;-59
2023/02/17 08:35:21;;;;;;;7.00;4.07;;;9.30;68.70;;;;;;5009093;28;20640;-61
2023/02/17 08:37:49;;;;;;;10.90;3.80;;;9.40;68.80;;;;;;5006393;28;20179;-60
2023/02/17 08:40:16;;;;;;;6.23;4.27;;;9.40;69.00;;;;;;5021602;28;20789;-60
2023/02/17 08:42:42;;;;;;;11.37;4.23;;;9.40;69.00;;;;;;5021084;28;20430;-60
2023/02/17 08:45:07;;;;;;;10.90;4.10;;;9.40;69.10;;;;;;5026888;28;20461;-60
2023/02/17 08:47:34;;;;;;;9.77;3.87;;;9.40;69.30;;;;;;5026536;28;20207;-60
2023/02/17 08:50:01;;;;;;;7.73;4.80;;;9.40;69.30;;;;;;5024303;28;20176;-61
2023/02/17 08:52:26;;;;;;;7.57;4.37;;;9.50;69.40;;;;;;5024224;28;20473;-60
2023/02/17 08:54:52;;;;;;;17.73;5.10;;;9.50;69.60;;;;;;5018868;28;20886;-60
2023/02/17 08:57:19;;;;;;;6.27;3.97;;;9.50;69.90;;;;;;5013062;28;20846;-60
2023/02/17 08:59:46;;;;;;;5.80;3.27;;;9.50;70.10;;;;;;5021408;28;20264;-61
2023/02/17 09:02:13;;;;;;;9.63;4.50;;;9.50;70.30;;;;;;5002022;28;20802;-60
2023/02/17 09:04:39;;;;;;;5.17;3.30;;;9.50;70.70;;;;;;5023062;28;21191;-60
2023/02/17 09:07:09;;;;;;;7.03;4.20;;;9.50;70.60;;;;;;5020674;28;20458;-58
2023/02/17 09:09:34;;;;;;;8.77;3.77;;;9.60;70.70;;;;;;5026294;28;20266;-57
2023/02/17 09:12:00;;;;;;;6.80;3.90;;;9.60;70.90;;;;;;5027377;28;20545;-58
2023/02/17 09:14:26;;;;;;;5.10;3.50;;;9.60;70.80;;;;;;5029250;28;20186;-57
2023/02/17 09:16:53;;;;;;;5.13;4.00;;;9.60;70.80;;;;;;5003320;28;20234;-58
2023/02/17 09:19:19;;;;;;;4.90;3.33;;;9.70;71.00;;;;;;5027314;28;20437;-58
2023/02/17 09:21:44;;;;;;;5.23;3.20;;;9.70;70.90;;;;;;5034380;28;20438;-56
2023/02/17 09:24:11;;;;;;;8.57;3.30;;;9.70;70.80;;;;;;5024271;28;20439;-58
2023/02/17 09:26:37;;;;;;;8.57;3.60;;;9.70;71.00;;;;;;5025917;28;20202;-57
2023/02/17 09:29:03;;;;;;;4.73;3.50;;;9.60;71.00;;;;;;5033731;28;20925;-58
2023/02/17 09:31:30;;;;;;;12.47;2.73;;;9.70;71.40;;;;;;5020877;28;22938;-58
2023/02/17 09:33:57;;;;;;;6.40;2.97;;;9.70;71.50;;;;;;5029610;28;20530;-58
2023/02/17 09:36:29;;;;;;;5.90;3.50;;;9.70;71.80;;;;;;5032474;28;20962;-57
2023/02/17 09:38:55;;;;;;;6.83;3.50;;;9.70;72.00;;;;;;5029114;28;20426;-58
2023/02/17 09:41:22;;;;;;;3.60;2.90;;;9.70;72.10;;;;;;5029331;28;20517;-58
2023/02/17 09:43:49;;;;;;;4.30;3.20;;;9.80;72.00;;;;;;5029659;28;20438;-59
2023/02/17 09:46:30;;;;;;;5.20;2.90;;;9.90;72.10;;;;;;5027940;28;20809;-60
2023/02/17 09:49:01;;;;;;;2.97;2.67;;;9.90;72.10;;;;;;5032594;28;20491;-58
2023/02/17 09:51:43;;;;;;;3.80;2.57;;;10.00;71.40;;;;;;5027481;28;20470;-57
2023/02/17 09:54:30;;;;;;;4.93;3.00;;;10.10;71.30;;;;;;5018697;28;20509;-60
2023/02/17 09:56:58;;;;;;;2.70;2.43;;;10.20;71.20;;;;;;5023579;28;20446;-56
2023/02/17 09:59:41;;;;;;;3.60;2.73;;;10.20;71.40;;;;;;5025150;28;20438;-57
2023/02/17 10:02:21;;;;;;;3.80;2.20;;;10.30;71.70;;;;;;5018037;28;20534;-58
2023/02/17 10:04:49;;;;;;;5.80;2.77;;;10.30;71.90;;;;;;5032921;28;20432;-58
2023/02/17 10:07:47;;;;;;;8.73;3.67;;;10.20;72.50;;;;;;5025959;28;21233;-57
2023/02/17 10:10:37;;;;;;;4.77;2.73;;;10.20;73.10;;;;;;5021023;28;20636;-60
2023/02/17 10:13:05;;;;;;;7.40;2.67;;;10.30;73.90;;;;;;5026646;28;20525;-60
2023/02/17 10:15:39;;;;;;;5.03;2.30;;;10.30;74.20;;;;;;5025497;28;20528;-60
2023/02/17 10:18:10;;;;;;;4.23;3.03;;;10.40;74.60;;;;;;5022472;28;21012;-61
2023/02/17 10:20:51;;;;;;;6.60;2.47;;;10.50;74.50;;;;;;5018715;28;20465;-61
2023/02/17 10:23:26;;;;;;;3.10;2.60;;;10.60;74.20;;;;;;5028606;28;20529;-61
2023/02/17 10:26:05;;;;;;;6.57;3.00;;;10.70;74.20;;;;;;5030995;28;20885;-61
2023/02/17 10:28:42;;;;;;;4.13;2.97;;;10.70;74.50;;;;;;5009490;28;20434;-61
2023/02/17 10:31:17;;;;;;;2.73;1.83;;;10.60;74.90;;;;;;5020687;28;20461;-61
2023/02/17 10:33:57;;;;;;;7.03;2.50;;;10.60;75.50;;;;;;5032467;28;20433;-61
2023/02/17 10:36:32;;;;;;;7.13;2.53;;;10.50;76.10;;;;;;5027170;28;20450;-60
2023/02/17 10:39:11;;;;;;;6.00;2.27;;;10.50;77.40;;;;;;5021222;28;20421;-61
2023/02/17 10:41:38;;;;;;;2.87;2.50;;;10.50;78.00;;;;;;5024048;28;20507;-61
2023/02/17 10:44:24;;;;;;;2.23;2.00;;;10.50;78.90;;;;;;5007119;28;20487;-61
2023/02/17 10:46:52;;;;;;;2.20;2.00;;;10.50;79.60;;;;;;5027894;28;20450;-61
2023/02/17 10:49:41;;;;;;;1.70;1.60;;;10.50;80.10;;;;;;5021209;28;20438;-61
2023/02/17 10:52:34;;;;;;;3.40;2.10;;;10.50;80.10;;;;;;5015056;28;20454;-61
2023/02/17 10:55:12;;;;;;;12.03;2.00;;;10.60;79.80;;;;;;5024919;28;20438;-61
2023/02/17 10:57:40;;;;;;;2.20;1.80;;;10.60;79.50;;;;;;5024354;28;20460;-58
2023/02/17 11:00:14;;;;;;;2.33;2.10;;;10.60;80.10;;;;;;5019805;28;20459;-58
2023/02/17 11:02:45;;;;;;;1.60;1.50;;;10.60;79.60;;;;;;5014663;28;20546;-58
2023/02/17 11:05:32;;;;;;;1.60;1.50;;;10.60;79.80;;;;;;5018352;28;20989;-58
2023/02/17 11:08:05;;;;;;;4.77;1.97;;;10.60;79.70;;;;;;5017790;28;20430;-58
2023/02/17 11:10:31;;;;;;;2.00;1.70;;;10.70;79.80;;;;;;5019385;28;20477;-58
2023/02/17 11:12:57;;;;;;;1.80;1.63;;;10.70;79.30;;;;;;5015400;28;20449;-58
2023/02/17 11:15:43;;;;;;;1.97;1.70;;;10.70;79.10;;;;;;5017157;28;20473;-59
2023/02/17 11:18:21;;;;;;;2.10;1.70;;;10.70;79.40;;;;;;5016219;28;20509;-59
2023/02/17 11:20:47;;;;;;;5.50;1.60;;;10.80;79.20;;;;;;5015481;28;20688;-59
2023/02/17 11:23:15;;;;;;;4.03;1.63;;;10.80;79.40;;;;;;5021657;28;20431;-60
2023/02/17 11:25:42;;;;;;;2.60;2.00;;;10.80;79.50;;;;;;5024717;28;20488;-60
2023/02/17 11:28:14;;;;;;;3.50;2.10;;;10.80;79.50;;;;;;5026325;28;20521;-60
2023/02/17 11:30:49;;;;;;;7.93;1.67;;;10.90;79.20;;;;;;5011727;28;20462;-60
2023/02/17 11:33:28;;;;;;;4.67;2.20;;;10.90;78.90;;;;;;5026072;28;20487;-59
2023/02/17 11:35:55;;;;;;;2.13;1.93;;;10.90;79.40;;;;;;5025106;28;20445;-60
2023/02/17 11:38:24;;;;;;;3.03;1.87;;;11.00;79.80;;;;;;5003582;28;20550;-61
2023/02/17 11:41:05;;;;;;;4.40;1.90;;;11.00;79.00;;;;;;5020580;28;20430;-60
2023/02/17 11:43:32;;;;;;;1.57;1.47;;;11.00;78.00;;;;;;5023716;28;20477;-61
2023/02/17 11:46:01;;;;;;;3.50;1.97;;;11.00;77.60;;;;;;5021901;28;20924;-60
2023/02/17 11:48:55;;;;;;;1.70;1.60;;;11.00;77.20;;;;;;5016310;28;20470;-60
2023/02/17 11:51:29;;;;;;;7.70;1.93;;;11.10;77.00;;;;;;5024810;28;20969;-61
2023/02/17 11:54:12;;;;;;;2.80;1.70;;;11.10;76.80;;;;;;5026279;28;20434;-60
2023/02/17 11:56:45;;;;;;;2.23;1.93;;;11.10;76.70;;;;;;5018495;28;20445;-60
2023/02/17 11:59:35;;;;;;;2.70;2.30;;;11.20;76.90;;;;;;5025078;28;21674;-61
2023/02/17 12:02:22;;;;;;;3.77;2.80;;;11.30;78.10;;;;;;5017337;28;20994;-61
2023/02/17 12:04:52;;;;;;;3.87;2.20;;;11.30;77.50;;;;;;5019315;28;20426;-60
2023/02/17 12:07:29;;;;;;;3.10;1.53;;;11.40;76.00;;;;;;5021811;28;20821;-60
2023/02/17 12:10:32;;;;;;;2.10;1.50;;;11.40;75.70;;;;;;5008267;28;20437;-59
2023/02/17 12:13:22;;;;;;;1.50;1.40;;;11.40;74.30;;;;;;5020751;28;20605;-60
2023/02/17 12:16:13;;;;;;;2.13;1.40;;;11.50;74.10;;;;;;5021074;28;20470;-60
2023/02/17 12:19:16;;;;;;;1.77;1.37;;;11.60;73.70;;;;;;5025793;28;20435;-60
2023/02/17 12:22:17;;;;;;;2.23;1.50;;;11.60;73.80;;;;;;5027770;28;20772;-60
2023/02/17 12:25:01;;;;;;;2.33;1.40;;;11.80;74.10;;;;;;5020743;28;20460;-61
2023/02/17 12:27:48;;;;;;;1.37;1.27;;;12.10;71.10;;;;;;5028759;28;20458;-60
2023/02/17 12:30:20;;;;;;;2.30;2.13;;;12.10;69.90;;;;;;5028749;28;20937;-60
2023/02/17 12:33:19;;;;;;;1.37;1.27;;;12.10;69.00;;;;;;5030978;28;20462;-60
2023/02/17 12:35:55;;;;;;;1.50;1.40;;;12.00;69.30;;;;;;5026019;28;20450;-60
2023/02/17 12:38:32;;;;;;;3.03;1.40;;;11.90;70.00;;;;;;5018425;28;20429;-60
2023/02/17 12:41:11;;;;;;;2.13;1.20;;;11.90;70.60;;;;;;5035921;28;20457;-60
2023/02/17 12:43:56;;;;;;;1.30;1.20;;;11.80;70.70;;;;;;5033904;28;20445;-59
2023/02/17 12:46:31;;;;;;;1.47;1.10;;;11.70;71.30;;;;;;5037831;28;20974;-60
2023/02/17 12:49:29;;;;;;;1.50;1.10;;;11.70;72.50;;;;;;5026072;28;20440;-60
2023/02/17 12:51:57;;;;;;;2.37;1.10;;;11.60;73.20;;;;;;5016978;28;20472;-59
2023/02/17 12:54:44;;;;;;;2.73;1.10;;;11.60;73.60;;;;;;5022221;28;20444;-59
2023/02/17 12:57:10;;;;;;;1.67;1.57;;;11.70;73.80;;;;;;5033891;28;21141;-60
2023/02/17 12:59:37;;;;;;;1.13;1.13;;;11.70;73.70;;;;;;5027604;28;20427;-60
2023/02/17 13:02:05;;;;;;;1.50;1.40;;;11.80;74.00;;;;;;5023443;28;20184;-60
2023/02/17 13:04:33;;;;;;;2.00;1.80;;;12.00;72.60;;;;;;5008633;28;20442;-61
2023/02/17 13:07:05;;;;;;;1.90;1.63;;;12.00;71.80;;;;;;5029954;28;20449;-59